sensor_id;sensor_type;location;lat;lon;timestamp;temperature;humidity
4564;DHT22;2294;51.818;8.484;2024-02-26T01:41:44;13.70;99.90
4564;DHT22;2294;51.818;8.484;2024-02-26T01:44:12;15.00;99.90
4564;DHT22;2294;51.818;8.484;2024-02-26T01:46:39;16.00;99.90
4564;DHT22;2294;51.818;8.484;2024-02-26T01:49:08;15.80;99.90
4564;DHT22;2294;51.818;8.484;2024-02-26T01:51:39;15.70;99.90
4564;DHT22;2294;51.818;8.484;2024-02-26T01:54:08;15.50;99.90
4564;DHT22;2294;51.818;8.484;2024-02-26T01:56:35;15.40;99.90
4564;DHT22;2294;51.818;8.484;2024-02-26T01:59:04;15.30;99.90
4564;DHT22;2294;51.818;8.484;2024-02-26T02:01:32;15.30;99.90
4564;DHT22;2294;51.818;8.484;2024-02-26T02:04:00;15.20;99.90
4564;DHT22;2294;51.818;8.484;2024-02-26T02:06:28;15.00;99.90
4564;DHT22;2294;51.818;8.484;2024-02-26T02:08:56;15.00;99.90
4564;DHT22;2294;51.818;8.484;2024-02-26T02:11:23;14.90;99.90
4564;DHT22;2294;51.818;8.484;2024-02-26T02:13:49;14.90;99.90
4564;DHT22;2294;51.818;8.484;2024-02-26T02:16:16;15.00;99.90
4564;DHT22;2294;51.818;8.484;2024-02-26T02:18:43;14.90;99.90
4564;DHT22;2294;51.818;8.484;2024-02-26T02:21:11;14.80;99.90
4564;DHT22;2294;51.818;8.484;2024-02-26T02:23:38;14.70;99.90
4564;DHT22;2294;51.818;8.484;2024-02-26T02:26:05;14.60;99.90
4564;DHT22;2294;51.818;8.484;2024-02-26T02:28:32;14.50;99.90
4564;DHT22;2294;51.818;8.484;2024-02-26T02:30:59;14.50;99.90
4564;DHT22;2294;51.818;8.484;2024-02-26T02:33:26;13.80;99.90
4564;DHT22;2294;51.818;8.484;2024-02-26T02:35:53;14.50;99.90
4564;DHT22;2294;51.818;8.484;2024-02-26T02:38:22;14.10;99.90
4564;DHT22;2294;51.818;8.484;2024-02-26T02:40:51;14.20;99.90
4564;DHT22;2294;51.818;8.484;2024-02-26T02:43:18;14.20;99.90
4564;DHT22;2294;51.818;8.484;2024-02-26T02:45:45;12.50;99.90
4564;DHT22;2294;51.818;8.484;2024-02-26T02:48:12;14.30;99.90
4564;DHT22;2294;51.818;8.484;2024-02-26T02:50:38;14.10;99.90
4564;DHT22;2294;51.818;8.484;2024-02-26T02:53:05;14.00;99.90
4564;DHT22;2294;51.818;8.484;2024-02-26T02:55:33;14.00;99.90
4564;DHT22;2294;51.818;8.484;2024-02-26T02:58:00;14.00;99.90
4564;DHT22;2294;51.818;8.484;2024-02-26T03:42:15;13.30;99.90
4564;DHT22;2294;51.818;8.484;2024-02-26T03:44:43;13.70;99.90
4564;DHT22;2294;51.818;8.484;2024-02-26T03:47:11;13.60;99.90
4564;DHT22;2294;51.818;8.484;2024-02-26T03:49:37;13.50;99.90
4564;DHT22;2294;51.818;8.484;2024-02-26T03:52:05;13.50;99.90
4564;DHT22;2294;51.818;8.484;2024-02-26T03:54:32;13.50;99.90
4564;DHT22;2294;51.818;8.484;2024-02-26T03:56:58;13.50;99.90
4564;DHT22;2294;51.818;8.484;2024-02-26T03:59:26;13.60;99.90
4564;DHT22;2294;51.818;8.484;2024-02-26T04:01:53;13.50;99.90
4564;DHT22;2294;51.818;8.484;2024-02-26T04:04:21;12.60;99.90
4564;DHT22;2294;51.818;8.484;2024-02-26T04:06:48;13.60;99.90
4564;DHT22;2294;51.818;8.484;2024-02-26T04:09:14;13.50;99.90
